Massena, NY (13662)

11:20 AM EST on December 08, 2016 (GMT -0500)
Wastewater Plant | | Change Station

Elev 182 ft 44.93 °N, 74.87 °W | Updated 12 seconds ago

Light Snow
Light Snow
35.0 °F
Feels Like 30 °F
N
6.0
Wind Variable Wind from WSW
Gusts 6.0 mph

Today
High -- | Low -- °F
--% Chance of Precip.
Yesterday
High -- | Low -- °F
Precip. -- in
Pressure 29.80 in
Visibility 8.0 miles
Clouds Few 3000 ft
Overcast 3500 ft
Windchill 30 °F
Dew Point 26 °F
Humidity 71%
Rainfall 0.00 in
Snow Depth Not available.
7:25 AM 4:18 PM
Waxing Gibbous, 64% visible
SPECI KMSS 081607Z AUTO 25012KT 8SM -SN FEW030 OVC035 02/M04 A2980 RMK AO2 P0000 T00171039
Pressure 29.80 in
Visibility 8.0 miles
Clouds Few 3000 ft
Overcast 3500 ft
Windchill 30 °F
Dew Point 26 °F
Humidity 71%
Rainfall 0.00 in
Snow Depth Not available.
7:25 AM 4:18 PM
Waxing Gibbous, 64% visible
SPECI KMSS 081607Z AUTO 25012KT 8SM -SN FEW030 OVC035 02/M04 A2980 RMK AO2 P0000 T00171039

10-Day Weather Forecast

Almanac

Astronomy

Dec. 08, 2016 Rise Set
Actual Time
Civil Twilight
Nautical Twilight
Astronomical Twilight
Moon
Length of Visible Light
Length of Day
Tomorrow will be .
, % of the Moon is Illuminated

Today's Extremes

State Highs State Lows

Community

WunderPhotos

Upload Photos

1,956,274 photos uploaded!

WunderBlog® & News

Nearby

Air Quality

  Air Quality AQ Index Pollutant
Not available.

Snow Depth

Station Depth Elevation

Earthquake Activity

City Distance Mag. Time & Date
Minimum magnitude displayed is 2.5.

Coastal Water Temperatures

Place Temperature

Stations

Nearby Weather Stations

Station Location Temp. Windchill Dew Point Humidity Wind Precip. Elev Updated Type
                   

Watches & Warnings

There are currently no watches in effect.